sensor_id;sensor_type;location;lat;lon;timestamp;pressure;altitude;pressure_sealevel;temperature;humidity
32875;BME280;40468;42.128;24.750;2023-02-28T00:00:08;100215.72;;;11.03;58.66
32875;BME280;40468;42.128;24.750;2023-02-28T00:01:40;100220.97;;;11.02;58.88
32875;BME280;40468;42.128;24.750;2023-02-28T00:03:12;100223.63;;;11.00;58.86
32875;BME280;40468;42.128;24.750;2023-02-28T00:04:43;100222.78;;;11.00;58.92
32875;BME280;40468;42.128;24.750;2023-02-28T00:06:15;100231.44;;;11.00;58.84
32875;BME280;40468;42.128;24.750;2023-02-28T00:07:47;100228.94;;;10.99;58.56
32875;BME280;40468;42.128;24.750;2023-02-28T00:09:18;100223.72;;;10.99;58.81
32875;BME280;40468;42.128;24.750;2023-02-28T00:10:49;100230.63;;;11.00;58.61
32875;BME280;40468;42.128;24.750;2023-02-28T00:12:20;100225.41;;;11.00;58.49
32875;BME280;40468;42.128;24.750;2023-02-28T00:13:52;100230.63;;;11.00;58.58
32875;BME280;40468;42.128;24.750;2023-02-28T00:15:25;100225.53;;;10.97;58.64
32875;BME280;40468;42.128;24.750;2023-02-28T00:16:56;100232.69;;;10.91;58.87
32875;BME280;40468;42.128;24.750;2023-02-28T00:18:27;100234.44;;;10.91;58.97
32875;BME280;40468;42.128;24.750;2023-02-28T00:19:59;100232.75;;;10.90;59.29
32875;BME280;40468;42.128;24.750;2023-02-28T00:21:40;100231.81;;;10.91;58.83
32875;BME280;40468;42.128;24.750;2023-02-28T00:23:13;100231.81;;;10.91;58.95
32875;BME280;40468;42.128;24.750;2023-02-28T00:24:45;100233.59;;;10.90;58.95
32875;BME280;40468;42.128;24.750;2023-02-28T00:26:17;100229.28;;;10.89;58.98
32875;BME280;40468;42.128;24.750;2023-02-28T00:27:48;100226.81;;;10.86;58.89
32875;BME280;40468;42.128;24.750;2023-02-28T00:29:20;100227.53;;;10.90;59.20
32875;BME280;40468;42.128;24.750;2023-02-28T00:30:53;100225.72;;;10.92;58.77
32875;BME280;40468;42.128;24.750;2023-02-28T00:32:25;100222.28;;;10.91;58.68
32875;BME280;40468;42.128;24.750;2023-02-28T00:33:57;100217.91;;;10.92;58.86
32875;BME280;40468;42.128;24.750;2023-02-28T00:35:28;100221.41;;;10.91;58.95
32875;BME280;40468;42.128;24.750;2023-02-28T00:37:00;100217.09;;;10.90;58.86
32875;BME280;40468;42.128;24.750;2023-02-28T00:38:32;100215.34;;;10.90;58.98
32875;BME280;40468;42.128;24.750;2023-02-28T00:40:05;100210.22;;;10.89;59.02
32875;BME280;40468;42.128;24.750;2023-02-28T00:41:37;100213.59;;;10.91;58.87
32875;BME280;40468;42.128;24.750;2023-02-28T00:43:08;100217.09;;;10.90;58.72
32875;BME280;40468;42.128;24.750;2023-02-28T00:44:40;100217.09;;;10.90;59.04
32875;BME280;40468;42.128;24.750;2023-02-28T00:46:13;100223.25;;;10.89;59.00
32875;BME280;40468;42.128;24.750;2023-02-28T00:47:45;100224.13;;;10.88;58.96
32875;BME280;40468;42.128;24.750;2023-02-28T00:49:19;100225.03;;;10.87;59.22
32875;BME280;40468;42.128;24.750;2023-02-28T00:50:51;100226.00;;;10.84;59.27
32875;BME280;40468;42.128;24.750;2023-02-28T00:52:23;100220.88;;;10.83;58.98
32875;BME280;40468;42.128;24.750;2023-02-28T00:53:55;100219.03;;;10.85;59.30
32875;BME280;40468;42.128;24.750;2023-02-28T00:55:26;100209.53;;;10.84;59.18
32875;BME280;40468;42.128;24.750;2023-02-28T00:56:57;100214.75;;;10.84;59.23
32875;BME280;40468;42.128;24.750;2023-02-28T00:58:29;100219.03;;;10.85;59.26
32875;BME280;40468;42.128;24.750;2023-02-28T01:00:00;100229.47;;;10.85;59.24
32875;BME280;40468;42.128;24.750;2023-02-28T01:01:34;100228.56;;;10.86;59.20
32875;BME280;40468;42.128;24.750;2023-02-28T01:03:06;100226.00;;;10.84;59.03
32875;BME280;40468;42.128;24.750;2023-02-28T01:04:36;100228.69;;;10.83;59.26
32875;BME280;40468;42.128;24.750;2023-02-28T01:06:08;100233.91;;;10.83;59.14
32875;BME280;40468;42.128;24.750;2023-02-28T01:07:40;100234.78;;;10.82;59.30
32875;BME280;40468;42.128;24.750;2023-02-28T01:09:12;100231.31;;;10.83;59.03
32875;BME280;40468;42.128;24.750;2023-02-28T01:10:43;100232.16;;;10.83;59.19
32875;BME280;40468;42.128;24.750;2023-02-28T01:12:15;100237.34;;;10.83;59.22
32875;BME280;40468;42.128;24.750;2023-02-28T01:13:47;100239.13;;;10.83;59.27
32875;BME280;40468;42.128;24.750;2023-02-28T01:15:18;100244.31;;;10.83;59.12
32875;BME280;40468;42.128;24.750;2023-02-28T01:16:51;100252.25;;;10.80;59.35
32875;BME280;40468;42.128;24.750;2023-02-28T01:18:23;100252.38;;;10.77;59.31
32875;BME280;40468;42.128;24.750;2023-02-28T01:19:54;100256.84;;;10.73;59.65
32875;BME280;40468;42.128;24.750;2023-02-28T01:21:26;100259.56;;;10.70;59.81
32875;BME280;40468;42.128;24.750;2023-02-28T01:22:59;100256.19;;;10.68;59.93
32875;BME280;40468;42.128;24.750;2023-02-28T01:24:31;100262.25;;;10.68;59.72
32875;BME280;40468;42.128;24.750;2023-02-28T01:26:04;100261.31;;;10.69;59.53
32875;BME280;40468;42.128;24.750;2023-02-28T01:27:35;100256.13;;;10.69;59.33
32875;BME280;40468;42.128;24.750;2023-02-28T01:29:07;100256.13;;;10.69;59.49
32875;BME280;40468;42.128;24.750;2023-02-28T01:30:38;100256.13;;;10.69;59.29
32875;BME280;40468;42.128;24.750;2023-02-28T01:32:12;100256.13;;;10.69;59.34
32875;BME280;40468;42.128;24.750;2023-02-28T01:33:43;100252.72;;;10.67;59.42
32875;BME280;40468;42.128;24.750;2023-02-28T01:35:15;100256.22;;;10.66;59.52
32875;BME280;40468;42.128;24.750;2023-02-28T01:36:47;100259.75;;;10.65;59.42
32875;BME280;40468;42.128;24.750;2023-02-28T01:38:19;100256.31;;;10.65;59.70
32875;BME280;40468;42.128;24.750;2023-02-28T01:39:50;100265.94;;;10.63;59.85
32875;BME280;40468;42.128;24.750;2023-02-28T01:41:22;100265.00;;;10.64;59.79
32875;BME280;40468;42.128;24.750;2023-02-28T01:42:54;100274.53;;;10.65;59.53
32875;BME280;40468;42.128;24.750;2023-02-28T01:46:18;100275.50;;;10.62;59.79
32875;BME280;40468;42.128;24.750;2023-02-28T01:47:51;100290.38;;;10.59;59.93
32875;BME280;40468;42.128;24.750;2023-02-28T01:49:23;100301.81;;;10.55;60.21
32875;BME280;40468;42.128;24.750;2023-02-28T01:50:54;100300.16;;;10.52;60.24
32875;BME280;40468;42.128;24.750;2023-02-28T01:52:30;100307.38;;;10.45;60.69
32875;BME280;40468;42.128;24.750;2023-02-28T01:54:03;100303.50;;;10.32;60.59
32875;BME280;40468;42.128;24.750;2023-02-28T01:55:37;100303.97;;;10.18;60.98
32875;BME280;40468;42.128;24.750;2023-02-28T01:57:09;100295.72;;;10.06;61.02
32875;BME280;40468;42.128;24.750;2023-02-28T01:58:41;100299.56;;;9.95;61.30
32875;BME280;40468;42.128;24.750;2023-02-28T02:00:13;100305.03;;;9.88;61.35
32875;BME280;40468;42.128;24.750;2023-02-28T02:01:45;100313.94;;;9.80;61.47
32875;BME280;40468;42.128;24.750;2023-02-28T02:03:19;100320.38;;;9.70;61.99
32875;BME280;40468;42.128;24.750;2023-02-28T02:04:51;100319.88;;;9.59;62.02
32875;BME280;40468;42.128;24.750;2023-02-28T02:06:24;100331.34;;;9.52;62.27
32875;BME280;40468;42.128;24.750;2023-02-28T02:07:57;100323.81;;;9.44;62.37
32875;BME280;40468;42.128;24.750;2023-02-28T02:09:31;100332.69;;;9.37;62.67
32875;BME280;40468;42.128;24.750;2023-02-28T02:11:03;100325.91;;;9.33;62.89
32875;BME280;40468;42.128;24.750;2023-02-28T02:12:39;100325.16;;;9.29;62.74
32875;BME280;40468;42.128;24.750;2023-02-28T02:14:22;100316.63;;;9.26;62.96
32875;BME280;40468;42.128;24.750;2023-02-28T02:16:00;100327.94;;;9.23;62.85
32875;BME280;40468;42.128;24.750;2023-02-28T02:17:35;100329.78;;;9.20;63.10
32875;BME280;40468;42.128;24.750;2023-02-28T02:19:17;100330.75;;;9.17;63.04
32875;BME280;40468;42.128;24.750;2023-02-28T02:23:01;100331.88;;;9.08;63.32
32875;BME280;40468;42.128;24.750;2023-02-28T02:26:31;100323.25;;;9.06;63.42
32875;BME280;40468;42.128;24.750;2023-02-28T02:28:11;100325.91;;;9.05;63.35
32875;BME280;40468;42.128;24.750;2023-02-28T02:31:52;100335.59;;;9.00;63.52
32875;BME280;40468;42.128;24.750;2023-02-28T02:35:25;100339.03;;;9.00;63.56
32875;BME280;40468;42.128;24.750;2023-02-28T02:37:00;100340.78;;;9.00;63.34
32875;BME280;40468;42.128;24.750;2023-02-28T02:38:37;100338.28;;;8.97;63.59
32875;BME280;40468;42.128;24.750;2023-02-28T02:40:13;100338.31;;;8.95;63.53
32875;BME280;40468;42.128;24.750;2023-02-28T02:41:46;100341.75;;;8.96;63.58
32875;BME280;40468;42.128;24.750;2023-02-28T02:43:19;100347.88;;;8.95;63.60
32875;BME280;40468;42.128;24.750;2023-02-28T02:44:52;100342.66;;;8.95;63.69
32875;BME280;40468;42.128;24.750;2023-02-28T02:46:28;100343.56;;;8.94;63.69
32875;BME280;40468;42.128;24.750;2023-02-28T02:48:01;100341.00;;;8.92;63.85
32875;BME280;40468;42.128;24.750;2023-02-28T02:49:35;100344.50;;;8.91;63.78
32875;BME280;40468;42.128;24.750;2023-02-28T02:51:09;100349.81;;;8.88;63.92
32875;BME280;40468;42.128;24.750;2023-02-28T02:52:45;100348.06;;;8.88;64.20
32875;BME280;40468;42.128;24.750;2023-02-28T02:54:19;100360.13;;;8.89;64.09
32875;BME280;40468;42.128;24.750;2023-02-28T02:55:52;100366.97;;;8.92;64.11
32875;BME280;40468;42.128;24.750;2023-02-28T02:57:26;100359.25;;;8.91;64.16
32875;BME280;40468;42.128;24.750;2023-02-28T02:59:00;100361.03;;;8.88;64.44
32875;BME280;40468;42.128;24.750;2023-02-28T03:00:33;100368.84;;;8.87;64.63
32875;BME280;40468;42.128;24.750;2023-02-28T03:02:06;100371.50;;;8.85;65.33
32875;BME280;40468;42.128;24.750;2023-02-28T03:03:39;100375.91;;;8.83;65.63
32875;BME280;40468;42.128;24.750;2023-02-28T03:05:12;100375.94;;;8.82;65.74
32875;BME280;40468;42.128;24.750;2023-02-28T03:06:47;100378.56;;;8.82;65.90
32875;BME280;40468;42.128;24.750;2023-02-28T03:08:19;100382.00;;;8.82;66.24
32875;BME280;40468;42.128;24.750;2023-02-28T03:09:51;100383.75;;;8.82;66.43
32875;BME280;40468;42.128;24.750;2023-02-28T03:11:23;100378.56;;;8.82;66.16
32875;BME280;40468;42.128;24.750;2023-02-28T03:12:56;100389.81;;;8.81;66.41
32875;BME280;40468;42.128;24.750;2023-02-28T03:14:33;100379.44;;;8.81;66.38
32875;BME280;40468;42.128;24.750;2023-02-28T03:18:00;100387.28;;;8.79;66.72
32875;BME280;40468;42.128;24.750;2023-02-28T03:21:20;100390.72;;;8.80;66.59
32875;BME280;40468;42.128;24.750;2023-02-28T03:22:56;100394.22;;;8.79;66.86
32875;BME280;40468;42.128;24.750;2023-02-28T03:24:32;100398.53;;;8.78;67.33
32875;BME280;40468;42.128;24.750;2023-02-28T03:26:10;100395.19;;;8.75;67.39
32875;BME280;40468;42.128;24.750;2023-02-28T03:27:46;100397.00;;;8.73;67.74
32875;BME280;40468;42.128;24.750;2023-02-28T03:29:21;100402.19;;;8.73;67.92
32875;BME280;40468;42.128;24.750;2023-02-28T03:30:56;100403.16;;;8.69;68.49
32875;BME280;40468;42.128;24.750;2023-02-28T03:32:32;100400.59;;;8.67;68.50
32875;BME280;40468;42.128;24.750;2023-02-28T03:34:05;100402.31;;;8.66;68.74
32875;BME280;40468;42.128;24.750;2023-02-28T03:35:39;100402.31;;;8.66;68.90
32875;BME280;40468;42.128;24.750;2023-02-28T03:37:12;100398.88;;;8.66;69.24
32875;BME280;40468;42.128;24.750;2023-02-28T03:38:48;100395.50;;;8.64;69.74
32875;BME280;40468;42.128;24.750;2023-02-28T03:40:24;100397.28;;;8.62;70.14
32875;BME280;40468;42.128;24.750;2023-02-28T03:41:57;100393.88;;;8.60;70.57
32875;BME280;40468;42.128;24.750;2023-02-28T03:43:31;100393.88;;;8.60;70.53
32875;BME280;40468;42.128;24.750;2023-02-28T03:45:04;100391.31;;;8.58;71.04
32875;BME280;40468;42.128;24.750;2023-02-28T03:46:38;100392.16;;;8.59;71.09
32875;BME280;40468;42.128;24.750;2023-02-28T03:48:14;100399.97;;;8.59;71.48
32875;BME280;40468;42.128;24.750;2023-02-28T03:49:46;100399.13;;;8.57;72.09
32875;BME280;40468;42.128;24.750;2023-02-28T03:51:19;100398.28;;;8.56;72.44
32875;BME280;40468;42.128;24.750;2023-02-28T03:52:54;100409.53;;;8.57;72.53
32875;BME280;40468;42.128;24.750;2023-02-28T03:54:33;100404.34;;;8.57;73.09
32875;BME280;40468;42.128;24.750;2023-02-28T03:56:07;100415.63;;;8.56;73.30
32875;BME280;40468;42.128;24.750;2023-02-28T03:57:44;100410.50;;;8.53;73.38
32875;BME280;40468;42.128;24.750;2023-02-28T03:59:22;100415.72;;;8.51;73.76
32875;BME280;40468;42.128;24.750;2023-02-28T04:00:58;100426.16;;;8.50;73.57
32875;BME280;40468;42.128;24.750;2023-02-28T04:02:30;100420.97;;;8.50;73.46
32875;BME280;40468;42.128;24.750;2023-02-28T04:04:01;100423.56;;;8.50;73.55
32875;BME280;40468;42.128;24.750;2023-02-28T04:05:33;100423.59;;;8.48;73.35
32875;BME280;40468;42.128;24.750;2023-02-28T04:07:16;100430.53;;;8.48;73.42
32875;BME280;40468;42.128;24.750;2023-02-28T04:08:48;100435.72;;;8.49;73.84
32875;BME280;40468;42.128;24.750;2023-02-28T04:10:20;100433.13;;;8.48;74.28
32875;BME280;40468;42.128;24.750;2023-02-28T04:11:52;100437.59;;;8.42;74.42
32875;BME280;40468;42.128;24.750;2023-02-28T04:13:25;100444.59;;;8.40;74.78
32875;BME280;40468;42.128;24.750;2023-02-28T04:14:56;100449.81;;;8.37;75.27
32875;BME280;40468;42.128;24.750;2023-02-28T04:16:28;100449.91;;;8.34;75.42
32875;BME280;40468;42.128;24.750;2023-02-28T04:17:58;100449.09;;;8.32;75.74
32875;BME280;40468;42.128;24.750;2023-02-28T04:19:30;100444.81;;;8.30;75.82
32875;BME280;40468;42.128;24.750;2023-02-28T04:21:01;100449.19;;;8.28;76.20
32875;BME280;40468;42.128;24.750;2023-02-28T04:22:32;100450.94;;;8.27;76.11
32875;BME280;40468;42.128;24.750;2023-02-28T04:24:04;100451.00;;;8.26;76.34
32875;BME280;40468;42.128;24.750;2023-02-28T04:25:37;100447.50;;;8.25;76.26
32875;BME280;40468;42.128;24.750;2023-02-28T04:27:10;100450.94;;;8.27;76.37
32875;BME280;40468;42.128;24.750;2023-02-28T04:28:42;100448.31;;;8.29;76.19
32875;BME280;40468;42.128;24.750;2023-02-28T04:30:13;100439.69;;;8.28;76.23
32875;BME280;40468;42.128;24.750;2023-02-28T04:31:44;100447.47;;;8.28;76.36
32875;BME280;40468;42.128;24.750;2023-02-28T04:33:16;100446.56;;;8.29;76.21
32875;BME280;40468;42.128;24.750;2023-02-28T04:34:48;100443.97;;;8.29;75.95
32875;BME280;40468;42.128;24.750;2023-02-28T04:36:18;100450.91;;;8.29;75.96
32875;BME280;40468;42.128;24.750;2023-02-28T04:37:50;100437.09;;;8.28;76.21
32875;BME280;40468;42.128;24.750;2023-02-28T04:39:22;100448.38;;;8.26;76.26
32875;BME280;40468;42.128;24.750;2023-02-28T04:40:56;100442.31;;;8.25;76.08
32875;BME280;40468;42.128;24.750;2023-02-28T04:42:28;100443.22;;;8.24;75.98
32875;BME280;40468;42.128;24.750;2023-02-28T04:44:05;100446.66;;;8.25;76.02
32875;BME280;40468;42.128;24.750;2023-02-28T04:45:37;100446.72;;;8.23;76.12
32875;BME280;40468;42.128;24.750;2023-02-28T04:47:08;100446.72;;;8.23;76.57
32875;BME280;40468;42.128;24.750;2023-02-28T04:48:40;100446.72;;;8.23;76.43
32875;BME280;40468;42.128;24.750;2023-02-28T04:50:13;100450.16;;;8.24;76.41
32875;BME280;40468;42.128;24.750;2023-02-28T04:51:44;100451.91;;;8.23;76.32
32875;BME280;40468;42.128;24.750;2023-02-28T04:53:16;100450.09;;;8.27;76.57
32875;BME280;40468;42.128;24.750;2023-02-28T04:54:47;100448.34;;;8.27;76.16
32875;BME280;40468;42.128;24.750;2023-02-28T04:56:21;100447.47;;;8.28;76.28
32875;BME280;40468;42.128;24.750;2023-02-28T04:57:53;100444.91;;;8.27;76.05
32875;BME280;40468;42.128;24.750;2023-02-28T04:59:23;100447.50;;;8.25;76.22
32875;BME280;40468;42.128;24.750;2023-02-28T05:00:59;100455.44;;;8.20;76.76
32875;BME280;40468;42.128;24.750;2023-02-28T05:02:33;100460.69;;;8.17;76.60
32875;BME280;40468;42.128;24.750;2023-02-28T05:04:05;100469.38;;;8.16;76.85
32875;BME280;40468;42.128;24.750;2023-02-28T05:05:37;100476.25;;;8.17;76.84
32875;BME280;40468;42.128;24.750;2023-02-28T05:07:07;100478.81;;;8.19;76.91
32875;BME280;40468;42.128;24.750;2023-02-28T05:08:39;100483.13;;;8.20;76.72
32875;BME280;40468;42.128;24.750;2023-02-28T05:10:11;100490.00;;;8.21;76.50
32875;BME280;40468;42.128;24.750;2023-02-28T05:11:44;100475.34;;;8.20;76.89
32875;BME280;40468;42.128;24.750;2023-02-28T05:13:15;100478.81;;;8.19;76.70
32875;BME280;40468;42.128;24.750;2023-02-28T05:14:46;100481.41;;;8.19;76.69
32875;BME280;40468;42.128;24.750;2023-02-28T05:16:18;100489.19;;;8.19;76.67
32875;BME280;40468;42.128;24.750;2023-02-28T05:17:48;100487.50;;;8.18;77.27
32875;BME280;40468;42.128;24.750;2023-02-28T05:19:20;100491.00;;;8.15;77.00
32875;BME280;40468;42.128;24.750;2023-02-28T05:20:52;100488.47;;;8.14;76.96
32875;BME280;40468;42.128;24.750;2023-02-28T05:22:23;100481.53;;;8.13;77.09
32875;BME280;40468;42.128;24.750;2023-02-28T05:23:54;100491.13;;;8.11;77.69
32875;BME280;40468;42.128;24.750;2023-02-28T05:25:26;100492.84;;;8.10;77.88
32875;BME280;40468;42.128;24.750;2023-02-28T05:26:59;100488.53;;;8.11;77.88
32875;BME280;40468;42.128;24.750;2023-02-28T05:28:31;100491.91;;;8.14;77.63
32875;BME280;40468;42.128;24.750;2023-02-28T05:30:02;100501.38;;;8.17;77.61
32875;BME280;40468;42.128;24.750;2023-02-28T05:31:34;100503.09;;;8.16;77.30
32875;BME280;40468;42.128;24.750;2023-02-28T05:33:06;100506.56;;;8.17;77.42
32875;BME280;40468;42.128;24.750;2023-02-28T05:34:38;100506.56;;;8.15;77.26
32875;BME280;40468;42.128;24.750;2023-02-28T05:36:09;100513.50;;;8.15;77.69
32875;BME280;40468;42.128;24.750;2023-02-28T05:37:40;100505.78;;;8.12;77.85
32875;BME280;40468;42.128;24.750;2023-02-28T05:39:12;100511.88;;;8.11;77.82
32875;BME280;40468;42.128;24.750;2023-02-28T05:40:43;100515.34;;;8.10;77.79
32875;BME280;40468;42.128;24.750;2023-02-28T05:42:16;100515.34;;;8.10;77.97
32875;BME280;40468;42.128;24.750;2023-02-28T05:43:48;100516.19;;;8.10;78.18
32875;BME280;40468;42.128;24.750;2023-02-28T05:45:19;100518.78;;;8.12;78.33
32875;BME280;40468;42.128;24.750;2023-02-28T05:46:51;100512.66;;;8.14;78.21
32875;BME280;40468;42.128;24.750;2023-02-28T05:48:22;100516.03;;;8.18;78.19
32875;BME280;40468;42.128;24.750;2023-02-28T05:49:53;100520.25;;;8.22;77.64
32875;BME280;40468;42.128;24.750;2023-02-28T05:51:24;100519.31;;;8.25;77.77
32875;BME280;40468;42.128;24.750;2023-02-28T05:52:55;100522.72;;;8.28;77.49
32875;BME280;40468;42.128;24.750;2023-02-28T05:54:27;100519.22;;;8.29;77.34
32875;BME280;40468;42.128;24.750;2023-02-28T05:55:59;100523.50;;;8.30;77.32
32875;BME280;40468;42.128;24.750;2023-02-28T05:57:32;100523.44;;;8.33;77.26
32875;BME280;40468;42.128;24.750;2023-02-28T05:59:03;100524.34;;;8.32;77.11
32875;BME280;40468;42.128;24.750;2023-02-28T06:00:35;100532.94;;;8.34;77.33
32875;BME280;40468;42.128;24.750;2023-02-28T06:02:07;100524.34;;;8.32;77.20
32875;BME280;40468;42.128;24.750;2023-02-28T06:03:42;100534.66;;;8.35;77.19
32875;BME280;40468;42.128;24.750;2023-02-28T06:05:14;100534.66;;;8.35;77.19
32875;BME280;40468;42.128;24.750;2023-02-28T06:06:46;100535.56;;;8.33;77.35
32875;BME280;40468;42.128;24.750;2023-02-28T06:08:17;100539.91;;;8.32;77.17
32875;BME280;40468;42.128;24.750;2023-02-28T06:09:49;100545.13;;;8.31;77.46
32875;BME280;40468;42.128;24.750;2023-02-28T06:11:21;100544.25;;;8.32;77.46
32875;BME280;40468;42.128;24.750;2023-02-28T06:13:00;100535.53;;;8.34;77.02
32875;BME280;40468;42.128;24.750;2023-02-28T06:14:32;100546.72;;;8.36;77.36
32875;BME280;40468;42.128;24.750;2023-02-28T06:16:05;100551.03;;;8.37;77.32
32875;BME280;40468;42.128;24.750;2023-02-28T06:17:37;100545.84;;;8.37;77.30
32875;BME280;40468;42.128;24.750;2023-02-28T06:19:09;100550.16;;;8.38;77.11
32875;BME280;40468;42.128;24.750;2023-02-28T06:20:41;100546.66;;;8.41;76.98
32875;BME280;40468;42.128;24.750;2023-02-28T06:22:12;100551.78;;;8.42;77.28
32875;BME280;40468;42.128;24.750;2023-02-28T06:23:44;100550.91;;;8.43;76.93
32875;BME280;40468;42.128;24.750;2023-02-28T06:25:14;100545.72;;;8.43;77.24
32875;BME280;40468;42.128;24.750;2023-02-28T06:26:46;100549.25;;;8.41;77.45
32875;BME280;40468;42.128;24.750;2023-02-28T06:28:19;100540.56;;;8.42;77.68
32875;BME280;40468;42.128;24.750;2023-02-28T06:29:53;100542.28;;;8.43;77.45
32875;BME280;40468;42.128;24.750;2023-02-28T06:31:25;100556.13;;;8.43;77.60
32875;BME280;40468;42.128;24.750;2023-02-28T06:32:58;100549.13;;;8.46;77.85
32875;BME280;40468;42.128;24.750;2023-02-28T06:34:30;100547.31;;;8.49;77.68
32875;BME280;40468;42.128;24.750;2023-02-28T06:36:03;100555.88;;;8.53;77.46
32875;BME280;40468;42.128;24.750;2023-02-28T06:37:34;100561.03;;;8.54;77.44
32875;BME280;40468;42.128;24.750;2023-02-28T06:39:06;100557.50;;;8.57;77.37
32875;BME280;40468;42.128;24.750;2023-02-28T06:40:38;100554.03;;;8.58;77.20
32875;BME280;40468;42.128;24.750;2023-02-28T06:42:09;100552.22;;;8.60;77.26
32875;BME280;40468;42.128;24.750;2023-02-28T06:43:43;100553.97;;;8.61;76.90
32875;BME280;40468;42.128;24.750;2023-02-28T06:45:15;100546.97;;;8.63;77.00
32875;BME280;40468;42.128;24.750;2023-02-28T06:46:46;100554.72;;;8.64;76.86
32875;BME280;40468;42.128;24.750;2023-02-28T06:48:18;100546.09;;;8.64;76.97
32875;BME280;40468;42.128;24.750;2023-02-28T06:49:50;100546.94;;;8.64;76.94
32875;BME280;40468;42.128;24.750;2023-02-28T06:51:22;100549.53;;;8.64;76.91
32875;BME280;40468;42.128;24.750;2023-02-28T06:52:54;100545.19;;;8.65;76.75
32875;BME280;40468;42.128;24.750;2023-02-28T06:54:26;100553.81;;;8.67;76.99
32875;BME280;40468;42.128;24.750;2023-02-28T06:55:57;100554.59;;;8.69;77.00
32875;BME280;40468;42.128;24.750;2023-02-28T06:57:29;100574.56;;;8.67;76.92
32875;BME280;40468;42.128;24.750;2023-02-28T06:59:03;100563.28;;;8.68;76.71
32875;BME280;40468;42.128;24.750;2023-02-28T07:00:35;100568.47;;;8.68;76.95
32875;BME280;40468;42.128;24.750;2023-02-28T07:02:07;100564.13;;;8.69;76.95
32875;BME280;40468;42.128;24.750;2023-02-28T07:03:39;100564.97;;;8.71;76.83
32875;BME280;40468;42.128;24.750;2023-02-28T07:05:10;100556.25;;;8.73;76.94
32875;BME280;40468;42.128;24.750;2023-02-28T07:06:42;100557.84;;;8.77;76.58
32875;BME280;40468;42.128;24.750;2023-02-28T07:08:14;100563.75;;;8.84;76.54
32875;BME280;40468;42.128;24.750;2023-02-28T07:09:45;100560.19;;;8.88;76.34
32875;BME280;40468;42.128;24.750;2023-02-28T07:11:17;100562.69;;;8.91;76.22
32875;BME280;40468;42.128;24.750;2023-02-28T07:12:48;100566.16;;;8.90;76.07
32875;BME280;40468;42.128;24.750;2023-02-28T07:14:22;100563.56;;;8.90;76.29
32875;BME280;40468;42.128;24.750;2023-02-28T07:15:54;100573.88;;;8.93;76.07
32875;BME280;40468;42.128;24.750;2023-02-28T07:17:25;100569.50;;;8.95;76.09
32875;BME280;40468;42.128;24.750;2023-02-28T07:18:56;100577.34;;;8.94;76.08
32875;BME280;40468;42.128;24.750;2023-02-28T07:20:28;100573.97;;;8.90;76.00
32875;BME280;40468;42.128;24.750;2023-02-28T07:22:00;100568.81;;;8.88;76.05
32875;BME280;40468;42.128;24.750;2023-02-28T07:23:32;100568.78;;;8.90;75.92
32875;BME280;40468;42.128;24.750;2023-02-28T07:25:04;100573.03;;;8.93;75.71
32875;BME280;40468;42.128;24.750;2023-02-28T07:26:36;100572.16;;;8.94;75.84
32875;BME280;40468;42.128;24.750;2023-02-28T07:28:08;100582.56;;;8.94;75.98
32875;BME280;40468;42.128;24.750;2023-02-28T07:29:41;100571.38;;;8.90;75.67
32875;BME280;40468;42.128;24.750;2023-02-28T07:31:13;100580.06;;;8.89;75.84
32875;BME280;40468;42.128;24.750;2023-02-28T07:32:45;100581.91;;;8.85;76.11
32875;BME280;40468;42.128;24.750;2023-02-28T07:34:17;100584.50;;;8.85;75.92
32875;BME280;40468;42.128;24.750;2023-02-28T07:35:48;100579.28;;;8.85;76.00
32875;BME280;40468;42.128;24.750;2023-02-28T07:37:20;100600.09;;;8.84;76.05
32875;BME280;40468;42.128;24.750;2023-02-28T07:38:52;100591.59;;;8.79;76.07
32875;BME280;40468;42.128;24.750;2023-02-28T07:40:23;100595.88;;;8.80;76.32
32875;BME280;40468;42.128;24.750;2023-02-28T07:41:56;100589.84;;;8.79;76.47
32875;BME280;40468;42.128;24.750;2023-02-28T07:43:27;100588.09;;;8.80;76.19
32875;BME280;40468;42.128;24.750;2023-02-28T07:45:00;100592.38;;;8.81;76.39
32875;BME280;40468;42.128;24.750;2023-02-28T07:46:45;100590.63;;;8.81;76.28
32875;BME280;40468;42.128;24.750;2023-02-28T07:48:17;100591.50;;;8.82;76.25
32875;BME280;40468;42.128;24.750;2023-02-28T07:49:49;100580.22;;;8.83;76.26
32875;BME280;40468;42.128;24.750;2023-02-28T07:51:21;100587.03;;;8.87;76.24
32875;BME280;40468;42.128;24.750;2023-02-28T07:52:53;100584.34;;;8.90;76.21
32875;BME280;40468;42.128;24.750;2023-02-28T07:54:25;100581.72;;;8.92;76.21
32875;BME280;40468;42.128;24.750;2023-02-28T07:55:57;100585.16;;;8.94;76.08
32875;BME280;40468;42.128;24.750;2023-02-28T07:57:28;100593.78;;;8.94;76.16
32875;BME280;40468;42.128;24.750;2023-02-28T07:59:00;100585.94;;;8.96;75.87
32875;BME280;40468;42.128;24.750;2023-02-28T08:00:34;100592.88;;;8.97;75.81
32875;BME280;40468;42.128;24.750;2023-02-28T08:02:05;100593.63;;;9.00;75.87
32875;BME280;40468;42.128;24.750;2023-02-28T08:03:37;100586.66;;;9.02;75.78
32875;BME280;40468;42.128;24.750;2023-02-28T08:05:09;100588.34;;;9.03;75.44
32875;BME280;40468;42.128;24.750;2023-02-28T08:06:40;100589.22;;;9.04;75.48
32875;BME280;40468;42.128;24.750;2023-02-28T08:08:12;100605.69;;;9.03;75.54
32875;BME280;40468;42.128;24.750;2023-02-28T08:09:44;100597.06;;;9.01;75.54
32875;BME280;40468;42.128;24.750;2023-02-28T08:11:16;100596.25;;;8.99;75.73
32875;BME280;40468;42.128;24.750;2023-02-28T08:12:48;100596.25;;;8.99;75.76
32875;BME280;40468;42.128;24.750;2023-02-28T08:14:19;100592.88;;;8.97;75.92
32875;BME280;40468;42.128;24.750;2023-02-28T08:15:52;100602.28;;;9.01;75.63